EGNTLTBS

Guest
Details From EGNT - Newcastle
To LTBS - Dalaman
Flight Number -
Tags Generated
Created
Modified
Stats Distance 1,662 nm / 3,077 km
Max Altitude 0 ft / 0 m
Waypoints 9
Social Downloads 7
Likes 0
Share VATSIM

Download

Looking for another format? Having issues loading an existing format? Contact us
Advertisement - Login to hide

Notes

Generated

Route

EGNT BERGI OHMAR LNZ71 LAKIK LEBAN LIO DAL32 LTBS

ID Type Via Altitude Latitude Longitude Leg Dist Tot Dist Heading (true) Name
O EGNT APT - 0 ft / 0 m 55.03353˚ -1.70634˚ - 0 nm - -
BERGI FIX - 0 ft / 0 m 52.74889˚ 4.35889˚ 254 nm 254 nm 120° / 125° -
OHMAR FIX - 0 ft / 0 m 50.82500˚ 8.88500˚ 203 nm 458 nm 123° / 126° -
LNZ71 FIX - 0 ft / 0 m 48.32592˚ 13.70392˚ 240 nm 698 nm 127° / 130° -
LAKIK FIX - 0 ft / 0 m 45.60222˚ 18.09750˚ 243 nm 942 nm 131° / 134° -
LEBAN FIX - 0 ft / 0 m 42.90861˚ 21.80456˚ 227 nm 1169 nm 134° / 137° -
LIO NDB - 0 ft / 0 m 39.92340˚ 25.24919˚ 237 nm 1406 nm 138° / 140° LIMNOS NDB
DAL32 FIX - 0 ft / 0 m 36.82597˚ 28.62903˚ 244 nm 1650 nm 138° / 140° -
O LTBS APT - 0 ft / 0 m 36.70016˚ 28.78809˚ 10 nm 1661 nm 135° / 135° -

Altitude Profile

Advertisement - Login to hide

Weather


0- 5 10 15 20 25 30 35+ Temperature / ° C

Clouds and Precipitation
Forecast for 2017-12-18 18:00 UTC. Updated 2 hours ago

Ground ~20,000 ft ~40,000 ft Winds

EGNT

Details ICAO EGNT (NCL)
Name Newcastle
Region United Kingdom
Timezone Europe/London (UTC+0.0)
Stats Elevation 266 ft / 81 m (AMSL)
Location 55.037922° -1.689833°
Runways 1
Magnetic Variation 1.476° W

METAR

EGNT 181420Z 27008KT 9999 BKN009 05/04 Q1028

Decode

TAF

TAF AMD EGNT 181443Z 1814/1912 25005KT 9999 FEW025 TEMPO 1814/1819 BKN009 PROB30 TEMPO 1902/1906 4000 BR TEMPO 1906/1912 3000 BR RADZ BKN008

Decode

Departure Runways

ID Width Length Bearing (true) Bearing (mag) Surface Threshold Offset Overrun Length
07 151 ft / 46 m 7,621 ft / 2,323 m 65.13° 66.61° Asphalt 394 ft / 120 m 108 ft / 33 m
25 151 ft / 46 m 7,621 ft / 2,323 m 245.16° 246.64° Asphalt 446 ft / 136 m 56 ft / 17 m

LTBS

Details ICAO LTBS (DLM)
Name DALAMAN
Region Turkey
Timezone Europe/Istanbul (UTC+3.0)
Stats Elevation 20 ft / 6 m (AMSL)
Location 36.713189° 28.792513°
Runways 1
Magnetic Variation 4.880° E

METAR

LTBS 181450Z 17006KT 130V230 8000 -SHRA SCT025 BKN080 15/12 Q1017 NOSIG

Decode

TAF

Not found

Destination Runways

ID Width Length Bearing (true) Bearing (mag) Surface Threshold Offset Overrun Length
01 148 ft / 45 m 9,851 ft / 3,003 m 15.24° 10.36° Concrete 0 ft / 0 m 197 ft / 60 m
19 148 ft / 45 m 9,851 ft / 3,003 m 195.25° 190.37° Concrete 0 ft / 0 m 197 ft / 60 m

Popular Alternatives